createdAt,value
2022-11-12T00:00:55.732Z,1026.5
2022-11-12T00:01:55.796Z,1026.6
2022-11-12T00:02:55.741Z,1026.5
2022-11-12T00:03:55.733Z,1026.6
2022-11-12T00:04:55.740Z,1026.7
2022-11-12T00:05:55.738Z,1026.6
2022-11-12T00:06:55.810Z,1026.7
2022-11-12T00:07:55.745Z,1026.6
2022-11-12T00:08:55.732Z,1026.6
2022-11-12T00:09:55.740Z,1026.6
2022-11-12T00:10:55.737Z,1026.6
2022-11-12T00:11:55.738Z,1026.6
2022-11-12T00:12:55.736Z,1026.6
2022-11-12T00:13:55.734Z,1026.6
2022-11-12T00:15:55.744Z,1026.6
2022-11-12T00:16:55.742Z,1026.6
2022-11-12T00:17:55.736Z,1026.6
2022-11-12T00:18:55.730Z,1026.6
2022-11-12T00:19:55.782Z,1026.6
2022-11-12T00:20:55.730Z,1026.6
2022-11-12T00:21:55.857Z,1026.7
2022-11-12T00:22:55.739Z,1026.7
2022-11-12T00:23:55.734Z,1026.7
2022-11-12T00:24:55.749Z,1026.7
2022-11-12T00:26:55.739Z,1026.7
2022-11-12T00:27:55.727Z,1026.7
2022-11-12T00:28:55.744Z,1026.7
2022-11-12T00:29:55.737Z,1026.7
2022-11-12T00:31:55.730Z,1026.7
2022-11-12T00:32:55.734Z,1026.6
2022-11-12T00:34:55.741Z,1026.7
2022-11-12T00:35:55.750Z,1026.7
2022-11-12T00:36:55.728Z,1026.7
2022-11-12T00:37:55.739Z,1026.7
2022-11-12T00:38:55.737Z,1026.7
2022-11-12T00:39:55.746Z,1026.7
2022-11-12T00:40:55.731Z,1026.8
2022-11-12T00:41:55.730Z,1026.8
2022-11-12T00:42:55.731Z,1026.8
2022-11-12T00:43:55.734Z,1026.8
2022-11-12T00:44:55.739Z,1026.8
2022-11-12T00:45:55.731Z,1026.8
2022-11-12T00:47:55.740Z,1026.8
2022-11-12T00:48:55.734Z,1026.9
2022-11-12T00:49:55.737Z,1026.8
2022-11-12T00:50:55.740Z,1026.8
2022-11-12T00:51:55.736Z,1026.8
2022-11-12T00:52:55.868Z,1026.8
2022-11-12T00:53:55.740Z,1026.8
2022-11-12T00:54:55.729Z,1026.8
2022-11-12T00:55:55.733Z,1026.8
2022-11-12T00:56:55.737Z,1026.8
2022-11-12T00:57:55.738Z,1026.8
2022-11-12T00:58:55.743Z,1026.8
2022-11-12T00:59:55.736Z,1026.8
2022-11-12T01:00:55.812Z,1026.8
2022-11-12T01:01:55.734Z,1026.8
2022-11-12T01:02:55.740Z,1026.7
2022-11-12T01:03:55.827Z,1026.8
2022-11-12T01:04:55.738Z,1026.8
2022-11-12T01:06:55.788Z,1026.8
2022-11-12T01:08:55.736Z,1026.8
2022-11-12T01:09:55.738Z,1026.8
2022-11-12T01:10:55.763Z,1026.8
2022-11-12T01:11:55.759Z,1026.8
2022-11-12T01:13:55.741Z,1026.8
2022-11-12T01:14:55.742Z,1026.8
2022-11-12T01:15:55.740Z,1026.8
2022-11-12T01:16:55.740Z,1026.8
2022-11-12T01:17:55.740Z,1026.8
2022-11-12T01:18:55.738Z,1026.8
2022-11-12T01:19:55.742Z,1026.8
2022-11-12T01:20:55.730Z,1026.9
2022-11-12T01:21:55.737Z,1026.9
2022-11-12T01:22:55.731Z,1026.9
2022-11-12T01:23:55.847Z,1026.9
2022-11-12T01:24:55.740Z,1026.9
2022-11-12T01:25:55.732Z,1026.9
2022-11-12T01:26:55.798Z,1026.9
2022-11-12T01:27:55.732Z,1026.9
2022-11-12T01:29:55.739Z,1026.8
2022-11-12T01:30:55.739Z,1026.8
2022-11-12T01:31:55.733Z,1026.8
2022-11-12T01:32:55.738Z,1026.9
2022-11-12T01:33:55.746Z,1026.8
2022-11-12T01:34:55.742Z,1026.9
2022-11-12T01:35:55.734Z,1026.8
2022-11-12T01:36:55.736Z,1026.9
2022-11-12T01:37:55.736Z,1026.9
2022-11-12T01:38:55.732Z,1026.9
2022-11-12T01:40:55.732Z,1026.9
2022-11-12T01:41:55.741Z,1026.9
2022-11-12T01:42:55.733Z,1026.9
2022-11-12T01:43:55.738Z,1026.9
2022-11-12T01:44:55.733Z,1026.8
2022-11-12T01:45:55.733Z,1026.9
2022-11-12T01:46:55.739Z,1026.9
2022-11-12T01:47:55.728Z,1026.8
2022-11-12T01:48:55.738Z,1026.8
2022-11-12T01:49:57.267Z,1026.8
2022-11-12T01:50:55.737Z,1026.8
2022-11-12T01:52:55.736Z,1026.8
2022-11-12T01:53:55.762Z,1026.8
2022-11-12T01:54:55.854Z,1026.8
2022-11-12T01:55:55.744Z,1026.8
2022-11-12T01:56:55.754Z,1026.7
2022-11-12T01:57:55.734Z,1026.7
2022-11-12T01:58:55.730Z,1026.8
2022-11-12T01:59:55.734Z,1026.8
2022-11-12T02:01:55.731Z,1026.8
2022-11-12T02:02:55.734Z,1026.7
2022-11-12T02:03:55.732Z,1026.7
2022-11-12T02:04:55.738Z,1026.7
2022-11-12T02:05:55.740Z,1026.7
2022-11-12T02:06:55.780Z,1026.7
2022-11-12T02:07:55.735Z,1026.7
2022-11-12T02:08:55.737Z,1026.7
2022-11-12T02:09:55.733Z,1026.7
2022-11-12T02:11:55.744Z,1026.7
2022-11-12T02:12:55.734Z,1026.7
2022-11-12T02:13:55.727Z,1026.7
2022-11-12T02:14:55.735Z,1026.7
2022-11-12T02:15:55.731Z,1026.7
2022-11-12T02:16:55.732Z,1026.7
2022-11-12T02:17:55.740Z,1026.7
2022-11-12T02:18:55.728Z,1026.6
2022-11-12T02:19:55.731Z,1026.6
2022-11-12T02:20:55.734Z,1026.6
2022-11-12T02:21:55.734Z,1026.6
2022-11-12T02:22:55.737Z,1026.6
2022-11-12T02:23:55.739Z,1026.6
2022-11-12T02:24:55.734Z,1026.6
2022-11-12T02:25:55.845Z,1026.6
2022-11-12T02:26:55.734Z,1026.6
2022-11-12T02:27:55.736Z,1026.6
2022-11-12T02:28:55.736Z,1026.6
2022-11-12T02:29:55.733Z,1026.5
2022-11-12T02:31:55.725Z,1026.5
2022-11-12T02:32:55.734Z,1026.5
2022-11-12T02:33:55.968Z,1026.6
2022-11-12T02:35:55.729Z,1026.6
2022-11-12T02:36:55.735Z,1026.6
2022-11-12T02:37:55.730Z,1026.6
2022-11-12T02:38:55.735Z,1026.6
2022-11-12T02:39:55.742Z,1026.6
2022-11-12T02:40:55.737Z,1026.7
2022-11-12T02:41:55.734Z,1026.6
2022-11-12T02:43:55.734Z,1026.6
2022-11-12T02:44:55.737Z,1026.6
2022-11-12T02:45:55.742Z,1026.6
2022-11-12T02:46:55.725Z,1026.6
2022-11-12T02:47:55.730Z,1026.6
2022-11-12T02:48:55.732Z,1026.6
2022-11-12T02:49:55.731Z,1026.7
2022-11-12T02:50:55.736Z,1026.6
2022-11-12T02:51:55.736Z,1026.7
2022-11-12T02:52:55.730Z,1026.7
2022-11-12T02:53:55.725Z,1026.7
2022-11-12T02:54:55.736Z,1026.7
2022-11-12T02:55:55.792Z,1026.7
2022-11-12T02:56:55.872Z,1026.7
2022-11-12T02:58:55.732Z,1026.7
2022-11-12T02:59:55.730Z,1026.7
2022-11-12T03:00:55.827Z,1026.7
2022-11-12T03:01:55.728Z,1026.6
2022-11-12T03:02:55.728Z,1026.6
2022-11-12T03:04:55.735Z,1026.7
2022-11-12T03:06:55.835Z,1026.6
2022-11-12T03:09:55.728Z,1026.6
2022-11-12T03:10:55.726Z,1026.6
2022-11-12T03:11:55.741Z,1026.6
2022-11-12T03:13:55.727Z,1026.6
2022-11-12T03:14:55.728Z,1026.6
2022-11-12T03:15:55.734Z,1026.6
2022-11-12T03:16:55.734Z,1026.6
2022-11-12T03:17:55.727Z,1026.6
2022-11-12T03:18:55.735Z,1026.6
2022-11-12T03:19:55.730Z,1026.6
2022-11-12T03:20:55.731Z,1026.6
2022-11-12T03:21:55.733Z,1026.6
2022-11-12T03:22:55.739Z,1026.6
2022-11-12T03:23:55.734Z,1026.6
2022-11-12T03:24:55.738Z,1026.6
2022-11-12T03:25:55.737Z,1026.6
2022-11-12T03:26:55.739Z,1026.6
2022-11-12T03:27:55.865Z,1026.6
2022-11-12T03:29:55.794Z,1026.6
2022-11-12T03:30:55.734Z,1026.6
2022-11-12T03:31:55.733Z,1026.6
2022-11-12T03:32:55.744Z,1026.6
2022-11-12T03:33:55.741Z,1026.6
2022-11-12T03:34:55.882Z,1026.6
2022-11-12T03:35:55.731Z,1026.6
2022-11-12T03:37:55.736Z,1026.6
2022-11-12T03:38:55.736Z,1026.5
2022-11-12T03:39:55.737Z,1026.5
2022-11-12T03:40:55.738Z,1026.5
2022-11-12T03:41:55.727Z,1026.5
2022-11-12T03:42:55.759Z,1026.6
2022-11-12T03:43:55.739Z,1026.5
2022-11-12T03:44:55.739Z,1026.5
2022-11-12T03:45:55.732Z,1026.5
2022-11-12T03:46:55.740Z,1026.6
2022-11-12T03:47:55.733Z,1026.5
2022-11-12T03:48:55.729Z,1026.5
2022-11-12T03:49:55.732Z,1026.6
2022-11-12T03:50:56.131Z,1026.5
2022-11-12T03:52:55.739Z,1026.5
2022-11-12T03:53:55.731Z,1026.5
2022-11-12T03:54:55.732Z,1026.5
2022-11-12T03:55:55.755Z,1026.5
2022-11-12T03:56:55.733Z,1026.5
2022-11-12T03:57:55.746Z,1026.6
2022-11-12T03:58:55.857Z,1026.5
2022-11-12T03:59:55.733Z,1026.5
2022-11-12T04:00:55.795Z,1026.5
2022-11-12T04:01:55.730Z,1026.4
2022-11-12T04:02:55.730Z,1026.5
2022-11-12T04:03:55.728Z,1026.4
2022-11-12T04:04:55.737Z,1026.4
2022-11-12T04:05:55.733Z,1026.4
2022-11-12T04:06:55.778Z,1026.4
2022-11-12T04:07:55.727Z,1026.4
2022-11-12T04:08:55.734Z,1026.4
2022-11-12T04:09:55.735Z,1026.4
2022-11-12T04:14:55.738Z,1026.4
2022-11-12T04:16:06.015Z,1026.3
2022-11-12T04:17:06.014Z,1026.4
2022-11-12T04:18:06.024Z,1026.3
2022-11-12T04:18:55.734Z,1026.3
2022-11-12T04:19:55.734Z,1026.3
2022-11-12T04:20:55.729Z,1026.3
2022-11-12T04:21:55.791Z,1026.2
2022-11-12T04:22:55.731Z,1026.2
2022-11-12T04:23:55.728Z,1026.2
2022-11-12T04:24:55.730Z,1026.2
2022-11-12T04:25:55.734Z,1026.2
2022-11-12T04:26:55.728Z,1026.2
2022-11-12T04:27:55.735Z,1026.2
2022-11-12T04:28:55.797Z,1026.2
2022-11-12T04:29:55.872Z,1026.2
2022-11-12T04:31:55.741Z,1026.1
2022-11-12T04:32:55.729Z,1026.1
2022-11-12T04:33:55.744Z,1026.2
2022-11-12T04:34:55.883Z,1026.1
2022-11-12T04:35:55.742Z,1026.2
2022-11-12T04:36:55.731Z,1026.2
2022-11-12T04:37:55.726Z,1026.1
2022-11-12T04:38:55.734Z,1026.1
2022-11-12T04:39:55.732Z,1026.1
2022-11-12T04:40:55.741Z,1026.1
2022-11-12T04:41:55.734Z,1026.1
2022-11-12T04:42:55.730Z,1026.1
2022-11-12T04:43:55.727Z,1026.1
2022-11-12T04:44:55.733Z,1026.1
2022-11-12T04:45:55.728Z,1026.1
2022-11-12T04:46:55.736Z,1026.1
2022-11-12T04:47:55.738Z,1026.1
2022-11-12T04:48:55.735Z,1026.1
2022-11-12T04:49:55.731Z,1026.1
2022-11-12T04:51:55.735Z,1026.1
2022-11-12T04:52:55.733Z,1026.1
2022-11-12T04:53:55.743Z,1026.1
2022-11-12T04:54:55.734Z,1026.1
2022-11-12T04:55:55.758Z,1026.1
2022-11-12T04:56:55.735Z,1026.1
2022-11-12T04:58:00.313Z,1026.1
2022-11-12T04:58:55.744Z,1026.1
2022-11-12T04:59:55.735Z,1026.1
2022-11-12T05:00:56.041Z,1026.1
2022-11-12T05:01:55.737Z,1026.1
2022-11-12T05:02:55.733Z,1026.1
2022-11-12T05:04:55.738Z,1026
2022-11-12T05:05:55.731Z,1026
2022-11-12T05:06:55.795Z,1026
2022-11-12T05:07:55.730Z,1026
2022-11-12T05:08:55.743Z,1026
2022-11-12T05:09:55.732Z,1026.1
2022-11-12T05:10:55.742Z,1026
2022-11-12T05:11:55.740Z,1026.1
2022-11-12T05:13:55.736Z,1026
2022-11-12T05:14:55.750Z,1026.1
2022-11-12T05:15:55.738Z,1026.1
2022-11-12T05:16:55.730Z,1026.1
2022-11-12T05:17:55.742Z,1026
2022-11-12T05:18:55.737Z,1026
2022-11-12T05:19:55.731Z,1026
2022-11-12T05:20:55.734Z,1026
2022-11-12T05:21:55.732Z,1025.9
2022-11-12T05:23:06.108Z,1026
2022-11-12T05:23:55.722Z,1025.9
2022-11-12T05:25:55.733Z,1025.9
2022-11-12T05:26:55.758Z,1025.9
2022-11-12T05:27:55.729Z,1025.9
2022-11-12T05:28:55.728Z,1025.9
2022-11-12T05:29:55.747Z,1025.9
2022-11-12T05:30:55.724Z,1025.9
2022-11-12T05:31:55.850Z,1025.9
2022-11-12T05:32:55.731Z,1025.9
2022-11-12T05:34:55.733Z,1025.9
2022-11-12T05:35:55.738Z,1025.8
2022-11-12T05:36:55.728Z,1025.8
2022-11-12T05:37:55.723Z,1025.9
2022-11-12T05:38:55.728Z,1025.8
2022-11-12T05:39:55.725Z,1025.8
2022-11-12T05:40:55.727Z,1025.8
2022-11-12T05:42:12.401Z,1025.8
2022-11-12T05:42:55.737Z,1025.8
2022-11-12T05:43:55.736Z,1025.8
2022-11-12T05:44:55.731Z,1025.7
2022-11-12T05:45:55.732Z,1025.7
2022-11-12T05:46:55.723Z,1025.8
2022-11-12T05:47:55.771Z,1025.7
2022-11-12T05:48:55.733Z,1025.7
2022-11-12T05:52:55.731Z,1025.7
2022-11-12T05:53:55.727Z,1025.7
2022-11-12T05:54:55.753Z,1025.7
2022-11-12T05:55:55.754Z,1025.7
2022-11-12T05:56:55.760Z,1025.8
2022-11-12T05:57:55.723Z,1025.7
2022-11-12T05:58:55.723Z,1025.7
2022-11-12T05:59:55.740Z,1025.7
2022-11-12T06:00:55.734Z,1025.7
2022-11-12T06:01:55.730Z,1025.7
2022-11-12T06:02:55.883Z,1025.7
2022-11-12T06:03:55.737Z,1025.6
2022-11-12T06:04:55.738Z,1025.7
2022-11-12T06:05:55.726Z,1025.7
2022-11-12T06:06:55.795Z,1025.7
2022-11-12T06:07:55.726Z,1025.7
2022-11-12T06:08:55.728Z,1025.7
2022-11-12T06:09:55.728Z,1025.7
2022-11-12T06:10:55.769Z,1025.7
2022-11-12T06:11:55.760Z,1025.7
2022-11-12T06:12:55.725Z,1025.8
2022-11-12T06:13:55.720Z,1025.7
2022-11-12T06:14:55.740Z,1025.7
2022-11-12T06:15:55.748Z,1025.7
2022-11-12T06:16:55.732Z,1025.8
2022-11-12T06:17:55.728Z,1025.8
2022-11-12T06:18:55.731Z,1025.9
2022-11-12T06:19:55.736Z,1025.9
2022-11-12T06:20:55.725Z,1025.9
2022-11-12T06:21:55.752Z,1025.9
2022-11-12T06:22:55.732Z,1025.9
2022-11-12T06:24:55.736Z,1026
2022-11-12T06:25:55.732Z,1026
2022-11-12T06:26:55.725Z,1026
2022-11-12T06:27:55.792Z,1026
2022-11-12T06:28:55.725Z,1026
2022-11-12T06:29:55.734Z,1026
2022-11-12T06:31:55.721Z,1026.1
2022-11-12T06:32:55.735Z,1026.1
2022-11-12T06:33:55.851Z,1026.1
2022-11-12T06:34:55.737Z,1026.1
2022-11-12T06:35:55.727Z,1026.1
2022-11-12T06:36:55.724Z,1026
2022-11-12T06:37:55.737Z,1026.1
2022-11-12T06:38:55.722Z,1026.1
2022-11-12T06:39:55.729Z,1026.1
2022-11-12T06:40:55.733Z,1026.1
2022-11-12T06:41:55.731Z,1026.1
2022-11-12T06:42:55.745Z,1026.2
2022-11-12T06:43:55.735Z,1026.1
2022-11-12T06:44:55.749Z,1026.1
2022-11-12T06:45:55.736Z,1026.2
2022-11-12T06:46:55.723Z,1026.2
2022-11-12T06:47:55.780Z,1026.2
2022-11-12T06:48:55.737Z,1026.2
2022-11-12T06:49:55.730Z,1026.2
2022-11-12T06:50:55.724Z,1026.2
2022-11-12T06:51:55.731Z,1026.2
2022-11-12T06:52:55.814Z,1026.2
2022-11-12T06:53:55.729Z,1026.2
2022-11-12T06:54:55.730Z,1026.2
2022-11-12T06:55:55.731Z,1026.2
2022-11-12T06:56:55.730Z,1026.2
2022-11-12T06:57:55.733Z,1026.2
2022-11-12T06:58:55.730Z,1026.2
2022-11-12T06:59:55.734Z,1026.2
2022-11-12T07:00:55.726Z,1026.2
2022-11-12T07:01:55.795Z,1026.2
2022-11-12T07:02:55.805Z,1026.2
2022-11-12T07:03:55.733Z,1026.2
2022-11-12T07:04:55.894Z,1026.2
2022-11-12T07:06:55.748Z,1026.2
2022-11-12T07:07:55.750Z,1026.3
2022-11-12T07:08:55.729Z,1026.3
2022-11-12T07:09:55.777Z,1026.2
2022-11-12T07:10:55.727Z,1026.3
2022-11-12T07:11:56.114Z,1026.3
2022-11-12T07:13:55.736Z,1026.3
2022-11-12T07:14:55.735Z,1026.3
2022-11-12T07:15:55.724Z,1026.3
2022-11-12T07:16:55.734Z,1026.3
2022-11-12T07:17:55.723Z,1026.4
2022-11-12T07:18:55.745Z,1026.3
2022-11-12T07:20:00.728Z,1026.3
2022-11-12T07:20:55.724Z,1026.3
2022-11-12T07:21:55.723Z,1026.3
2022-11-12T07:22:55.737Z,1026.3
2022-11-12T07:23:55.727Z,1026.3
2022-11-12T07:25:55.732Z,1026.4
2022-11-12T07:26:55.726Z,1026.4
2022-11-12T07:27:55.722Z,1026.3
2022-11-12T07:28:55.738Z,1026.3
2022-11-12T07:29:55.726Z,1026.3
2022-11-12T07:30:55.730Z,1026.3
2022-11-12T07:31:55.729Z,1026.3
2022-11-12T07:32:55.733Z,1026.4
2022-11-12T07:33:55.724Z,1026.3
2022-11-12T07:35:55.846Z,1026.3
2022-11-12T07:36:55.735Z,1026.3
2022-11-12T07:37:59.427Z,1026.4
2022-11-12T07:38:55.726Z,1026.4
2022-11-12T07:39:55.733Z,1026.4
2022-11-12T07:40:55.726Z,1026.4
2022-11-12T07:41:55.724Z,1026.4
2022-11-12T07:42:55.731Z,1026.4
2022-11-12T07:43:55.722Z,1026.4
2022-11-12T07:44:55.757Z,1026.4
2022-11-12T07:46:55.726Z,1026.4
2022-11-12T07:47:55.733Z,1026.4
2022-11-12T07:48:55.727Z,1026.4
2022-11-12T07:49:55.723Z,1026.4
2022-11-12T07:50:55.726Z,1026.4
2022-11-12T07:52:55.729Z,1026.4
2022-11-12T07:53:59.271Z,1026.5
2022-11-12T07:54:55.726Z,1026.4
2022-11-12T07:55:55.724Z,1026.5
2022-11-12T07:56:55.723Z,1026.4
2022-11-12T07:57:55.741Z,1026.4
2022-11-12T07:58:55.734Z,1026.4
2022-11-12T07:59:55.743Z,1026.3
2022-11-12T08:00:55.750Z,1026.3
2022-11-12T08:01:55.767Z,1026.3
2022-11-12T08:02:55.750Z,1026.3
2022-11-12T08:04:55.725Z,1026.2
2022-11-12T08:05:55.723Z,1026.2
2022-11-12T08:06:56.008Z,1026.2
2022-11-12T08:07:55.867Z,1026.2
2022-11-12T08:08:55.731Z,1026.2
2022-11-12T08:09:55.731Z,1026.2
2022-11-12T08:10:55.730Z,1026.3
2022-11-12T08:11:55.733Z,1026.2
2022-11-12T08:12:55.724Z,1026.2
2022-11-12T08:13:55.724Z,1026.2
2022-11-12T08:14:55.727Z,1026.2
2022-11-12T08:15:55.732Z,1026.1
2022-11-12T08:17:55.739Z,1026.2
2022-11-12T08:18:55.727Z,1026.2
2022-11-12T08:19:55.719Z,1026.2
2022-11-12T08:20:55.730Z,1026.2
2022-11-12T08:21:55.736Z,1026.2
2022-11-12T08:22:55.787Z,1026.2
2022-11-12T08:23:55.733Z,1026.3
2022-11-12T08:24:55.730Z,1026.3
2022-11-12T08:25:55.741Z,1026.3
2022-11-12T08:26:55.731Z,1026.3
2022-11-12T08:27:55.742Z,1026.3
2022-11-12T08:28:55.738Z,1026.3
2022-11-12T08:29:55.737Z,1026.3
2022-11-12T08:30:55.730Z,1026.3
2022-11-12T08:31:55.759Z,1026.3
2022-11-12T08:32:55.733Z,1026.2
2022-11-12T08:33:55.736Z,1026.2
2022-11-12T08:34:55.738Z,1026.3
2022-11-12T08:35:55.740Z,1026.2
2022-11-12T08:36:55.738Z,1026.2
2022-11-12T08:38:55.743Z,1026.3
2022-11-12T08:39:55.732Z,1026.2
2022-11-12T08:40:55.735Z,1026.3
2022-11-12T08:41:55.737Z,1026.2
2022-11-12T08:42:55.731Z,1026.2
2022-11-12T08:43:55.737Z,1026.2
2022-11-12T08:44:55.729Z,1026.2
2022-11-12T08:45:55.725Z,1026.3
2022-11-12T08:46:55.729Z,1026.3
2022-11-12T08:47:55.738Z,1026.2
2022-11-12T08:48:55.738Z,1026.3
2022-11-12T08:49:55.732Z,1026.3
2022-11-12T08:50:55.730Z,1026.3
2022-11-12T08:51:55.731Z,1026.3
2022-11-12T08:52:55.751Z,1026.3
2022-11-12T08:53:55.727Z,1026.3
2022-11-12T08:54:55.903Z,1026.3
2022-11-12T08:55:55.739Z,1026.2
2022-11-12T08:56:55.734Z,1026.3
2022-11-12T08:57:55.740Z,1026.3
2022-11-12T08:58:55.730Z,1026.4
2022-11-12T08:59:55.745Z,1026.4
2022-11-12T09:00:55.738Z,1026.4
2022-11-12T09:01:55.795Z,1026.4
2022-11-12T09:02:55.731Z,1026.5
2022-11-12T09:03:55.731Z,1026.5
2022-11-12T09:04:55.738Z,1026.5
2022-11-12T09:06:55.796Z,1026.5
2022-11-12T09:07:55.783Z,1026.4
2022-11-12T09:08:55.898Z,1026.4
2022-11-12T09:10:55.730Z,1026.4
2022-11-12T09:11:55.737Z,1026.4
2022-11-12T09:13:55.778Z,1026.5
2022-11-12T09:14:59.551Z,1026.4
2022-11-12T09:15:55.787Z,1026.5
2022-11-12T09:16:55.738Z,1026.5
2022-11-12T09:18:55.737Z,1026.5
2022-11-12T09:19:55.734Z,1026.5
2022-11-12T09:20:55.794Z,1026.5
2022-11-12T09:21:55.750Z,1026.5
2022-11-12T09:22:55.743Z,1026.5
2022-11-12T09:23:55.756Z,1026.5
2022-11-12T09:24:55.954Z,1026.5
2022-11-12T09:25:55.734Z,1026.5
2022-11-12T09:26:55.733Z,1026.5
2022-11-12T09:27:55.762Z,1026.5
2022-11-12T09:28:55.735Z,1026.5
2022-11-12T09:29:55.739Z,1026.5
2022-11-12T09:31:55.743Z,1026.5
2022-11-12T09:32:55.738Z,1026.5
2022-11-12T09:33:55.751Z,1026.6
2022-11-12T09:34:56.039Z,1026.5
2022-11-12T09:35:55.738Z,1026.5
2022-11-12T09:36:55.741Z,1026.6
2022-11-12T09:37:55.756Z,1026.5
2022-11-12T09:38:55.744Z,1026.5
2022-11-12T09:39:55.856Z,1026.5
2022-11-12T09:40:55.744Z,1026.5
2022-11-12T09:42:01.626Z,1026.5
2022-11-12T09:42:55.747Z,1026.5
2022-11-12T09:43:55.747Z,1026.5
2022-11-12T09:44:55.745Z,1026.5
2022-11-12T09:46:13.986Z,1026.5
2022-11-12T09:46:55.755Z,1026.5
2022-11-12T09:47:55.744Z,1026.6
2022-11-12T09:49:55.754Z,1026.6
2022-11-12T09:50:55.741Z,1026.6
2022-11-12T09:52:55.751Z,1026.6
2022-11-12T09:53:55.746Z,1026.6
2022-11-12T09:54:55.751Z,1026.5
2022-11-12T09:55:55.752Z,1026.6
2022-11-12T09:56:55.755Z,1026.5
2022-11-12T09:57:55.757Z,1026.5
2022-11-12T09:58:55.744Z,1026.5
2022-11-12T09:59:55.748Z,1026.6
2022-11-12T10:00:55.752Z,1026.6
2022-11-12T10:01:55.809Z,1026.6
2022-11-12T10:02:55.766Z,1026.6
2022-11-12T10:03:55.748Z,1026.6
2022-11-12T10:04:55.751Z,1026.6
2022-11-12T10:05:55.756Z,1026.6
2022-11-12T10:06:55.797Z,1026.6
2022-11-12T10:07:55.784Z,1026.6
2022-11-12T10:08:55.753Z,1026.6
2022-11-12T10:09:55.753Z,1026.6
2022-11-12T10:10:55.870Z,1026.6
2022-11-12T10:11:58.775Z,1026.5
2022-11-12T10:12:55.757Z,1026.6
2022-11-12T10:13:55.750Z,1026.5
2022-11-12T10:14:55.755Z,1026.5
2022-11-12T10:15:55.755Z,1026.6
2022-11-12T10:16:55.759Z,1026.6
2022-11-12T10:17:55.750Z,1026.6
2022-11-12T10:18:55.759Z,1026.6
2022-11-12T10:19:55.758Z,1026.5
2022-11-12T10:20:55.758Z,1026.5
2022-11-12T10:21:55.755Z,1026.5
2022-11-12T10:22:55.763Z,1026.5
2022-11-12T10:24:55.753Z,1026.4
2022-11-12T10:25:55.756Z,1026.5
2022-11-12T10:26:55.758Z,1026.5
2022-11-12T10:27:55.752Z,1026.4
2022-11-12T10:28:55.758Z,1026.5
2022-11-12T10:29:55.755Z,1026.5
2022-11-12T10:30:55.757Z,1026.4
2022-11-12T10:31:55.756Z,1026.4
2022-11-12T10:32:55.763Z,1026.4
2022-11-12T10:34:55.818Z,1026.3
2022-11-12T10:35:55.859Z,1026.4
2022-11-12T10:36:55.757Z,1026.3
2022-11-12T10:37:55.752Z,1026.3
2022-11-12T10:38:55.757Z,1026.4
2022-11-12T10:39:55.769Z,1026.3
2022-11-12T10:40:55.760Z,1026.3
2022-11-12T10:41:55.890Z,1026.3
2022-11-12T10:42:55.754Z,1026.3
2022-11-12T10:43:55.767Z,1026.2
2022-11-12T10:44:55.764Z,1026.3
2022-11-12T10:45:55.765Z,1026.3
2022-11-12T10:46:55.780Z,1026.3
2022-11-12T10:47:55.769Z,1026.2
2022-11-12T10:48:55.767Z,1026.3
2022-11-12T10:49:55.764Z,1026.2
2022-11-12T10:50:55.767Z,1026.2
2022-11-12T10:52:55.760Z,1026.1
2022-11-12T10:53:55.771Z,1026.1
2022-11-12T10:54:55.783Z,1026.1
2022-11-12T10:55:55.783Z,1026.1
2022-11-12T10:56:56.030Z,1026.1
2022-11-12T10:57:55.762Z,1026.1
2022-11-12T10:58:55.761Z,1026
2022-11-12T10:59:55.767Z,1026
2022-11-12T11:00:55.773Z,1026
2022-11-12T11:01:55.795Z,1026
2022-11-12T11:02:55.773Z,1026
2022-11-12T11:03:55.765Z,1026
2022-11-12T11:04:55.776Z,1026.1
2022-11-12T11:06:55.780Z,1026
2022-11-12T11:07:55.762Z,1025.9
2022-11-12T11:08:55.766Z,1025.9
2022-11-12T11:09:55.761Z,1026
2022-11-12T11:10:55.769Z,1025.9
2022-11-12T11:11:55.817Z,1025.9
2022-11-12T11:13:56.126Z,1025.9
2022-11-12T11:14:55.768Z,1025.9
2022-11-12T11:15:55.774Z,1025.9
2022-11-12T11:16:55.812Z,1025.8
2022-11-12T11:17:55.767Z,1026
2022-11-12T11:18:55.772Z,1025.9
2022-11-12T11:19:55.786Z,1025.9
2022-11-12T11:20:55.774Z,1025.9
2022-11-12T11:22:55.775Z,1025.8
2022-11-12T11:23:55.773Z,1025.8
2022-11-12T11:24:55.770Z,1025.8
2022-11-12T11:25:55.774Z,1025.8
2022-11-12T11:26:55.777Z,1025.8
2022-11-12T11:27:55.777Z,1025.8
2022-11-12T11:28:55.778Z,1025.8
2022-11-12T11:29:55.781Z,1025.8
2022-11-12T11:31:55.784Z,1025.7
2022-11-12T11:32:55.783Z,1025.8
2022-11-12T11:33:55.771Z,1025.8
2022-11-12T11:34:55.782Z,1025.8
2022-11-12T11:35:55.782Z,1025.8
2022-11-12T11:36:55.770Z,1025.8
2022-11-12T11:37:58.419Z,1025.8
2022-11-12T11:38:55.779Z,1025.8
2022-11-12T11:39:55.788Z,1025.8
2022-11-12T11:40:55.774Z,1025.8
2022-11-12T11:41:55.944Z,1025.7
2022-11-12T11:42:55.781Z,1025.7
2022-11-12T11:43:55.941Z,1025.7
2022-11-12T11:44:55.787Z,1025.7
2022-11-12T11:45:55.780Z,1025.7
2022-11-12T11:46:55.786Z,1025.7
2022-11-12T11:48:01.597Z,1025.7
2022-11-12T11:48:55.785Z,1025.6
2022-11-12T11:49:55.781Z,1025.6
2022-11-12T11:50:55.777Z,1025.6
2022-11-12T11:52:55.787Z,1025.6
2022-11-12T11:53:55.851Z,1025.6
2022-11-12T11:54:55.786Z,1025.6
2022-11-12T11:55:55.784Z,1025.6
2022-11-12T11:56:55.787Z,1025.6
2022-11-12T11:57:55.790Z,1025.6
2022-11-12T11:58:55.784Z,1025.6
2022-11-12T11:59:55.781Z,1025.5
2022-11-12T12:00:55.788Z,1025.6
2022-11-12T12:01:55.788Z,1025.6
2022-11-12T12:02:55.782Z,1025.5
2022-11-12T12:03:55.877Z,1025.6
2022-11-12T12:04:55.788Z,1025.6
2022-11-12T12:05:55.778Z,1025.6
2022-11-12T12:06:55.860Z,1025.6
2022-11-12T12:07:55.779Z,1025.6
2022-11-12T12:08:55.788Z,1025.6
2022-11-12T12:09:55.792Z,1025.5
2022-11-12T12:11:11.248Z,1025.5
2022-11-12T12:11:56.148Z,1025.5
2022-11-12T12:13:55.810Z,1025.5
2022-11-12T12:14:55.910Z,1025.5
2022-11-12T12:15:55.788Z,1025.5
2022-11-12T12:16:55.782Z,1025.6
2022-11-12T12:17:55.783Z,1025.5
2022-11-12T12:18:55.785Z,1025.5
2022-11-12T12:19:55.792Z,1025.5
2022-11-12T12:20:55.789Z,1025.6
2022-11-12T12:21:55.784Z,1025.6
2022-11-12T12:22:55.804Z,1025.5
2022-11-12T12:23:55.796Z,1025.5
2022-11-12T12:24:55.793Z,1025.6
2022-11-12T12:26:00.053Z,1025.5
2022-11-12T12:26:55.790Z,1025.5
2022-11-12T12:27:55.788Z,1025.6
2022-11-12T12:28:55.793Z,1025.6
2022-11-12T12:29:55.802Z,1025.6
2022-11-12T12:30:55.797Z,1025.6
2022-11-12T12:31:55.798Z,1025.5
2022-11-12T12:32:55.792Z,1025.6
2022-11-12T12:34:55.806Z,1025.5
2022-11-12T12:35:55.811Z,1025.4
2022-11-12T12:36:55.797Z,1025.4
2022-11-12T12:37:55.790Z,1025.4
2022-11-12T12:38:55.810Z,1025.3
2022-11-12T12:39:55.796Z,1025.4
2022-11-12T12:40:55.798Z,1025.3
2022-11-12T12:41:55.798Z,1025.3
2022-11-12T12:42:55.793Z,1025.3
2022-11-12T12:43:55.800Z,1025.3
2022-11-12T12:44:55.794Z,1025.3
2022-11-12T12:45:55.922Z,1025.2
2022-11-12T12:46:55.795Z,1025.3
2022-11-12T12:48:55.799Z,1025.2
2022-11-12T12:49:55.800Z,1025.3
2022-11-12T12:50:55.807Z,1025.2
2022-11-12T12:51:56.167Z,1025.2
2022-11-12T12:52:55.800Z,1025.2
2022-11-12T12:53:55.803Z,1025.2
2022-11-12T12:54:55.809Z,1025.2
2022-11-12T12:55:55.801Z,1025.2
2022-11-12T12:56:55.802Z,1025.2
2022-11-12T12:57:55.798Z,1025.1
2022-11-12T12:58:55.809Z,1025.1
2022-11-12T12:59:55.809Z,1025.1
2022-11-12T13:00:55.863Z,1025.1
2022-11-12T13:01:55.806Z,1025.2
2022-11-12T13:02:55.801Z,1025.2
2022-11-12T13:03:55.804Z,1025.2
2022-11-12T13:04:55.804Z,1025.1
2022-11-12T13:05:55.809Z,1025.2
2022-11-12T13:06:55.923Z,1025.2
2022-11-12T13:07:55.809Z,1025.1
2022-11-12T13:08:55.810Z,1025.1
2022-11-12T13:09:55.809Z,1025.1
2022-11-12T13:10:55.816Z,1025.1
2022-11-12T13:13:55.807Z,1025.1
2022-11-12T13:14:55.807Z,1025.1
2022-11-12T13:15:55.841Z,1025.2
2022-11-12T13:16:55.929Z,1025.1
2022-11-12T13:17:55.814Z,1025.2
2022-11-12T13:18:55.816Z,1025.2
2022-11-12T13:19:55.811Z,1025.2
2022-11-12T13:20:55.808Z,1025.2
2022-11-12T13:21:55.803Z,1025.2
2022-11-12T13:22:55.811Z,1025.2
2022-11-12T13:23:55.808Z,1025.2
2022-11-12T13:24:55.816Z,1025.2
2022-11-12T13:25:55.816Z,1025.2
2022-11-12T13:26:55.858Z,1025.2
2022-11-12T13:27:55.814Z,1025.1
2022-11-12T13:28:55.815Z,1025.2
2022-11-12T13:29:55.832Z,1025.1
2022-11-12T13:30:55.832Z,1025.1
2022-11-12T13:31:55.820Z,1025.1
2022-11-12T13:32:55.823Z,1025.1
2022-11-12T13:34:55.816Z,1025.1
2022-11-12T13:35:55.815Z,1025.1
2022-11-12T13:36:55.818Z,1025.1
2022-11-12T13:37:55.822Z,1025.1
2022-11-12T13:39:00.101Z,1025.1
2022-11-12T13:39:55.825Z,1025.1
2022-11-12T13:40:55.817Z,1025